createdAt,value
2022-11-21T00:01:20.897Z,64.85
2022-11-21T00:04:27.585Z,64.61
2022-11-21T00:07:34.018Z,64.62
2022-11-21T00:10:39.221Z,64.63
2022-11-21T00:13:46.315Z,64.85
2022-11-21T00:16:57.135Z,64.71
2022-11-21T00:20:03.863Z,64.99
2022-11-21T00:23:10.535Z,65.35
2022-11-21T00:26:17.913Z,65.27
2022-11-21T00:29:24.256Z,64.98
2022-11-21T00:32:28.790Z,64.69
2022-11-21T00:35:35.317Z,64.75
2022-11-21T00:38:41.814Z,64.78
2022-11-21T00:41:48.120Z,64.54
2022-11-21T00:44:52.707Z,64.04
2022-11-21T00:47:59.089Z,64.26
2022-11-21T00:51:03.652Z,64.95
2022-11-21T00:54:10.027Z,65.18
2022-11-21T00:57:16.257Z,65.25
2022-11-21T01:00:23.045Z,65.32
2022-11-21T01:03:29.345Z,65.04
2022-11-21T01:06:33.966Z,64.60
2022-11-21T01:09:40.229Z,64.23
2022-11-21T01:12:45.455Z,63.66
2022-11-21T01:15:51.749Z,63.60
2022-11-21T01:18:56.556Z,63.68
2022-11-21T01:22:02.860Z,64.04
2022-11-21T01:25:08.986Z,64.11
2022-11-21T01:28:15.535Z,64.03
2022-11-21T01:31:20.959Z,63.76
2022-11-21T01:34:27.390Z,63.59
2022-11-21T01:37:33.752Z,63.29
2022-11-21T01:40:41.139Z,63.19
2022-11-21T01:43:47.930Z,63.22
2022-11-21T01:46:55.529Z,63.31
2022-11-21T01:50:01.885Z,63.28
2022-11-21T01:53:06.768Z,63.68
2022-11-21T01:56:14.038Z,64.37
2022-11-21T01:59:24.467Z,64.45
2022-11-21T02:02:34.862Z,64.91
2022-11-21T02:05:42.614Z,65.35
2022-11-21T02:08:49.168Z,65.49
2022-11-21T02:11:59.846Z,65.37
2022-11-21T02:15:06.967Z,65.52
2022-11-21T02:18:13.861Z,65.43
2022-11-21T02:21:28.192Z,65.46
2022-11-21T02:24:45.222Z,65.50
2022-11-21T02:27:56.488Z,65.27
2022-11-21T02:31:02.756Z,65.81
2022-11-21T02:34:07.278Z,66.16
2022-11-21T02:37:13.717Z,66.06
2022-11-21T02:40:25.625Z,66.05
2022-11-21T02:43:36.993Z,65.98
2022-11-21T02:46:50.979Z,65.35
2022-11-21T02:50:03.311Z,64.92
2022-11-21T02:53:11.431Z,64.60
2022-11-21T02:56:17.673Z,64.59
2022-11-21T02:59:24.132Z,64.80
2022-11-21T03:02:28.697Z,64.69
2022-11-21T03:05:35.303Z,64.89
2022-11-21T03:08:41.591Z,64.92
2022-11-21T03:11:46.093Z,64.85
2022-11-21T03:14:52.461Z,64.86
2022-11-21T03:17:59.134Z,64.65
2022-11-21T03:21:05.872Z,64.21
2022-11-21T03:24:12.827Z,64.26
2022-11-21T03:27:19.278Z,64.28
2022-11-21T03:30:27.267Z,64.30
2022-11-21T03:33:33.554Z,64.34
2022-11-21T03:36:38.212Z,64.09
2022-11-21T03:39:44.487Z,64.27
2022-11-21T03:42:49.122Z,64.45
2022-11-21T03:45:55.592Z,64.45
2022-11-21T03:49:02.056Z,64.36
2022-11-21T03:52:08.474Z,64.61
2022-11-21T03:55:15.311Z,64.99
2022-11-21T03:58:21.481Z,65.33
2022-11-21T04:01:31.273Z,65.56
2022-11-21T04:04:40.137Z,65.66
2022-11-21T04:07:46.581Z,65.78
2022-11-21T04:10:54.298Z,65.92
2022-11-21T04:14:00.542Z,66.08
2022-11-21T04:17:05.114Z,66.25
2022-11-21T04:20:13.085Z,66.53
2022-11-21T04:23:19.254Z,66.62
2022-11-21T04:26:25.652Z,66.26
2022-11-21T04:29:31.816Z,66.24
2022-11-21T04:32:37.974Z,66.21
2022-11-21T04:35:44.672Z,66.10
2022-11-21T04:38:50.789Z,66.40
2022-11-21T04:41:56.789Z,66.36
2022-11-21T04:45:02.841Z,66.37
2022-11-21T04:48:09.311Z,66.50
2022-11-21T04:51:15.410Z,66.32
2022-11-21T04:54:21.525Z,66.47
2022-11-21T04:57:29.134Z,66.51
2022-11-21T05:00:36.121Z,66.40
2022-11-21T05:03:42.484Z,66.60
2022-11-21T05:06:46.885Z,66.15
2022-11-21T05:09:52.883Z,65.90
2022-11-21T05:13:20.333Z,65.80
2022-11-21T05:16:26.608Z,65.30
2022-11-21T05:19:31.125Z,65.26
2022-11-21T05:22:37.352Z,65.59
2022-11-21T05:25:43.723Z,65.73
2022-11-21T05:28:49.711Z,65.85
2022-11-21T05:31:55.800Z,65.39
2022-11-21T05:35:01.885Z,65.26
2022-11-21T05:38:07.924Z,65.44
2022-11-21T05:41:14.013Z,65.33
2022-11-21T05:44:20.426Z,65.14
2022-11-21T05:47:26.557Z,65.23
2022-11-21T05:50:32.564Z,64.84
2022-11-21T05:53:39.189Z,65.05
2022-11-21T05:56:45.541Z,64.76
2022-11-21T05:59:50.020Z,64.36
2022-11-21T06:03:16.103Z,64.37
2022-11-21T06:06:25.004Z,64.59
2022-11-21T06:09:31.245Z,64.27
2022-11-21T06:12:37.409Z,64.10
2022-11-21T06:15:41.920Z,63.94
2022-11-21T06:18:50.028Z,63.88
2022-11-21T06:21:57.851Z,63.60
2022-11-21T06:25:03.900Z,63.29
2022-11-21T06:28:10.067Z,63.70
2022-11-21T06:31:17.769Z,63.71
2022-11-21T06:34:23.936Z,64.04
2022-11-21T06:37:30.059Z,64.49
2022-11-21T06:40:36.192Z,64.62
2022-11-21T06:43:42.866Z,64.82
2022-11-21T06:46:51.472Z,64.59
2022-11-21T06:49:57.981Z,64.98
2022-11-21T06:53:04.221Z,65.35
2022-11-21T06:56:08.724Z,65.44
2022-11-21T06:59:14.797Z,65.58
2022-11-21T07:02:20.946Z,65.20
2022-11-21T07:05:27.014Z,65.24
2022-11-21T07:08:35.524Z,65.16
2022-11-21T07:11:41.688Z,65.06
2022-11-21T07:14:47.809Z,64.96
2022-11-21T07:17:53.971Z,65.48
2022-11-21T07:21:02.985Z,65.19
2022-11-21T07:24:10.034Z,64.81
2022-11-21T07:27:16.253Z,64.77
2022-11-21T07:30:20.885Z,64.67
2022-11-21T07:33:27.498Z,64.90
2022-11-21T07:36:33.926Z,64.65
2022-11-21T07:39:40.053Z,64.75
2022-11-21T07:42:46.337Z,64.48
2022-11-21T07:45:50.798Z,64.20
2022-11-21T07:49:01.962Z,64.27
2022-11-21T07:52:09.317Z,64.24
2022-11-21T07:55:15.485Z,64.71
2022-11-21T07:58:21.512Z,65.09
2022-11-21T08:01:27.840Z,65.64
2022-11-21T08:04:34.115Z,65.38
2022-11-21T08:07:38.711Z,65.16
2022-11-21T08:10:47.089Z,65.33
2022-11-21T08:13:53.150Z,65.20
2022-11-21T08:16:59.210Z,64.87
2022-11-21T08:20:05.757Z,65.12
2022-11-21T08:23:12.028Z,65.26
2022-11-21T08:26:16.692Z,65.33
2022-11-21T08:29:22.750Z,65.86
2022-11-21T08:32:29.007Z,66.01
2022-11-21T08:35:33.707Z,66.07
2022-11-21T08:38:39.921Z,66.43
2022-11-21T08:42:04.505Z,67.24
2022-11-21T08:45:11.965Z,67.89
2022-11-21T08:48:18.058Z,68.12
2022-11-21T08:51:24.651Z,68.23
2022-11-21T08:54:30.912Z,68.63
2022-11-21T08:57:40.557Z,68.91
2022-11-21T09:00:46.671Z,69.33
2022-11-21T09:03:52.686Z,69.69
2022-11-21T09:06:58.905Z,70.10
2022-11-21T09:10:05.374Z,70.31
2022-11-21T09:13:11.422Z,71.11
2022-11-21T09:16:34.933Z,71.06
2022-11-21T09:19:41.097Z,71.50
2022-11-21T09:22:47.189Z,71.54
2022-11-21T09:25:53.330Z,71.54
2022-11-21T09:28:59.468Z,71.94
2022-11-21T09:32:05.917Z,72.65
2022-11-21T09:35:12.384Z,72.93
2022-11-21T09:38:23.641Z,72.82
2022-11-21T09:41:53.401Z,73.29
2022-11-21T09:45:09.308Z,73.29
2022-11-21T09:48:19.044Z,73.03
2022-11-21T09:51:27.240Z,73.08
2022-11-21T09:54:37.949Z,73.51
2022-11-21T09:57:44.357Z,73.91
2022-11-21T10:00:53.825Z,73.93
2022-11-21T10:04:02.996Z,73.93
2022-11-21T10:07:14.776Z,74.57
2022-11-21T10:10:30.588Z,74.50
2022-11-21T10:13:48.031Z,74.18
2022-11-21T10:17:01.811Z,73.77
2022-11-21T10:20:23.188Z,73.64
2022-11-21T10:23:44.278Z,73.42
2022-11-21T10:26:55.509Z,72.93
2022-11-21T10:30:06.545Z,72.16
2022-11-21T10:33:17.010Z,71.48
2022-11-21T10:36:29.738Z,71.56
2022-11-21T10:39:42.850Z,71.59
2022-11-21T10:42:57.102Z,71.70
2022-11-21T10:46:03.226Z,71.41
2022-11-21T10:49:14.604Z,71.13
2022-11-21T10:52:26.873Z,71.17
2022-11-21T10:55:33.118Z,71.06
2022-11-21T10:58:45.636Z,70.68
2022-11-21T11:01:59.749Z,70.74
2022-11-21T11:05:23.181Z,70.71
2022-11-21T11:08:32.004Z,70.66
2022-11-21T11:11:38.143Z,70.89
2022-11-21T11:14:51.173Z,70.75
2022-11-21T11:18:05.833Z,70.80
2022-11-21T11:21:21.719Z,70.71
2022-11-21T11:24:29.131Z,70.53
2022-11-21T11:27:38.549Z,70.35
2022-11-21T11:30:46.153Z,70.14
2022-11-21T11:33:57.449Z,70.13
2022-11-21T11:37:14.808Z,69.89
2022-11-21T11:40:27.237Z,69.78
2022-11-21T11:43:58.466Z,69.59
2022-11-21T11:47:32.181Z,69.57
2022-11-21T11:50:42.984Z,69.80
2022-11-21T11:53:56.159Z,69.75
2022-11-21T11:57:07.379Z,69.66
2022-11-21T12:00:28.424Z,69.77
2022-11-21T12:03:45.249Z,69.39
2022-11-21T12:10:26.038Z,68.99
2022-11-21T12:13:35.205Z,69.12
2022-11-21T12:16:43.129Z,69.21
2022-11-21T12:19:52.311Z,69.16
2022-11-21T12:22:58.901Z,69.14
2022-11-21T12:26:18.159Z,68.78
2022-11-21T12:29:43.371Z,68.66
2022-11-21T12:33:08.501Z,69.03
2022-11-21T12:36:24.928Z,68.96
2022-11-21T12:39:55.880Z,68.79
2022-11-21T12:43:15.585Z,68.99
2022-11-21T12:46:26.852Z,68.83
2022-11-21T12:50:02.874Z,68.41
2022-11-21T12:53:36.048Z,68.28
2022-11-21T12:56:50.664Z,68.19
2022-11-21T13:00:13.241Z,67.58
2022-11-21T13:03:33.984Z,66.85
2022-11-21T13:06:42.951Z,66.17
2022-11-21T13:09:53.340Z,65.69
2022-11-21T13:13:05.243Z,64.93
2022-11-21T13:16:36.743Z,64.79
2022-11-21T13:19:51.779Z,64.54
2022-11-21T13:23:28.875Z,64.46
2022-11-21T13:26:57.053Z,64.31
2022-11-21T13:30:20.828Z,64.32
2022-11-21T13:34:02.322Z,65.19
2022-11-21T13:37:08.895Z,64.46
2022-11-21T13:40:37.761Z,65.02
2022-11-21T13:43:44.290Z,64.78
2022-11-21T13:47:04.248Z,64.51
2022-11-21T13:50:17.662Z,64.44
2022-11-21T13:53:58.171Z,64.27
2022-11-21T13:57:16.296Z,64.00
2022-11-21T14:00:36.899Z,63.98
2022-11-21T14:03:54.861Z,64.29
2022-11-21T14:07:23.735Z,64.30
2022-11-21T14:10:35.917Z,64.24
2022-11-21T14:13:48.100Z,64.35
2022-11-21T14:17:02.482Z,64.31
2022-11-21T14:20:20.811Z,64.16
2022-11-21T14:23:30.470Z,64.20
2022-11-21T14:26:41.457Z,64.24
2022-11-21T14:29:47.501Z,64.26
2022-11-21T14:32:54.587Z,64.13
2022-11-21T14:36:04.921Z,63.91
2022-11-21T14:42:43.945Z,63.82
2022-11-21T14:45:53.092Z,63.81
2022-11-21T14:49:11.085Z,63.82
2022-11-21T14:52:22.410Z,63.54
2022-11-21T14:55:33.646Z,63.76
2022-11-21T14:58:41.656Z,63.68
2022-11-21T15:01:58.552Z,63.55
2022-11-21T15:05:06.590Z,63.61
2022-11-21T15:11:44.913Z,63.79
2022-11-21T15:14:55.535Z,63.67
2022-11-21T15:18:26.288Z,63.79
2022-11-21T15:21:29.572Z,64.52
2022-11-21T15:24:37.757Z,63.92
2022-11-21T15:27:44.784Z,64.01
2022-11-21T15:31:11.117Z,64.03
2022-11-21T15:34:35.422Z,63.90
2022-11-21T15:37:54.661Z,63.55
2022-11-21T15:41:11.759Z,63.40
2022-11-21T15:44:25.231Z,63.71
2022-11-21T15:47:31.317Z,63.66
2022-11-21T15:50:38.237Z,64.24
2022-11-21T15:53:44.666Z,64.46
2022-11-21T15:56:49.456Z,64.77
2022-11-21T15:57:15.592Z,63.66
2022-11-21T15:59:55.573Z,64.80
2022-11-21T16:03:01.648Z,64.69
2022-11-21T16:06:07.723Z,65.24
2022-11-21T16:09:14.092Z,65.31
2022-11-21T16:12:18.821Z,65.36
2022-11-21T16:15:25.703Z,64.84
2022-11-21T16:18:32.766Z,64.46
2022-11-21T16:21:39.150Z,64.48
2022-11-21T16:24:43.646Z,64.45
2022-11-21T16:27:49.793Z,64.85
2022-11-21T16:30:55.905Z,64.87
2022-11-21T16:34:02.688Z,64.87
2022-11-21T16:37:08.756Z,64.83
2022-11-21T16:40:15.275Z,64.72
2022-11-21T16:43:21.334Z,64.89
2022-11-21T16:46:28.111Z,65.00
2022-11-21T16:49:34.206Z,65.00
2022-11-21T16:52:40.794Z,64.89
2022-11-21T16:55:46.923Z,64.87
2022-11-21T16:58:53.223Z,64.82
2022-11-21T17:01:57.748Z,64.85
2022-11-21T17:05:03.708Z,64.95
2022-11-21T17:08:09.897Z,64.86
2022-11-21T17:11:18.250Z,64.98
2022-11-21T17:14:24.273Z,64.99
2022-11-21T17:17:30.333Z,65.16
2022-11-21T17:20:36.472Z,65.35
2022-11-21T17:23:44.385Z,65.34
2022-11-21T17:26:50.614Z,65.64
2022-11-21T17:29:56.673Z,65.63
2022-11-21T17:33:03.397Z,65.71
2022-11-21T17:36:13.227Z,65.67
2022-11-21T17:39:19.314Z,65.62
2022-11-21T17:42:27.074Z,65.60
2022-11-21T17:45:35.565Z,65.62
2022-11-21T17:48:41.976Z,65.64
2022-11-21T17:51:51.376Z,65.66
2022-11-21T17:55:00.369Z,65.69
2022-11-21T17:58:06.509Z,65.62
2022-11-21T18:01:19.288Z,65.65
2022-11-21T18:04:26.214Z,65.75
2022-11-21T18:07:35.086Z,65.65
2022-11-21T18:10:43.914Z,65.69
2022-11-21T18:13:51.270Z,65.82
2022-11-21T18:16:58.326Z,65.90
2022-11-21T18:20:04.481Z,65.76
2022-11-21T18:23:10.489Z,65.74
2022-11-21T18:26:20.726Z,65.91
2022-11-21T18:29:36.300Z,66.15
2022-11-21T18:32:43.389Z,66.20
2022-11-21T18:35:49.497Z,66.15
2022-11-21T18:39:02.283Z,66.08
2022-11-21T18:42:11.331Z,66.07
2022-11-21T18:45:15.789Z,66.07
2022-11-21T18:48:24.009Z,66.15
2022-11-21T18:51:32.125Z,66.08
2022-11-21T18:54:38.393Z,66.06
2022-11-21T18:57:44.541Z,65.97
2022-11-21T19:00:50.640Z,65.99
2022-11-21T19:03:57.773Z,66.00
2022-11-21T19:07:03.940Z,65.83
2022-11-21T19:13:37.888Z,65.97
2022-11-21T19:16:43.963Z,66.18
2022-11-21T19:19:50.071Z,66.20
2022-11-21T19:22:54.637Z,66.37
2022-11-21T19:26:04.082Z,66.70
2022-11-21T19:29:10.521Z,67.03
2022-11-21T19:32:16.655Z,67.02
2022-11-21T19:35:24.574Z,67.05
2022-11-21T19:38:31.005Z,66.94
2022-11-21T19:41:37.377Z,66.72
2022-11-21T19:44:41.824Z,66.49
2022-11-21T19:47:49.126Z,66.63
2022-11-21T19:50:59.822Z,66.56
2022-11-21T19:54:06.974Z,66.41
2022-11-21T19:57:14.171Z,66.19
2022-11-21T20:00:22.883Z,66.32
2022-11-21T20:03:29.076Z,66.32
2022-11-21T20:06:37.220Z,66.39
2022-11-21T20:09:43.500Z,66.55
2022-11-21T20:12:49.597Z,66.79
2022-11-21T20:15:55.653Z,66.80
2022-11-21T20:19:03.963Z,66.89
2022-11-21T20:22:10.047Z,67.26
2022-11-21T20:25:16.268Z,66.90
2022-11-21T20:28:20.729Z,66.70
2022-11-21T20:31:28.194Z,66.73
2022-11-21T20:34:35.979Z,66.68
2022-11-21T20:37:42.065Z,66.69
2022-11-21T20:40:54.904Z,66.52
2022-11-21T20:47:28.978Z,66.08
2022-11-21T20:51:20.880Z,66.08
2022-11-21T20:54:03.573Z,66.70
2022-11-21T20:57:14.790Z,66.91
2022-11-21T21:00:22.702Z,66.73
2022-11-21T21:03:30.213Z,66.82
2022-11-21T21:06:37.701Z,66.90
2022-11-21T21:09:43.925Z,66.99
2022-11-21T21:12:50.029Z,67.15
2022-11-21T21:15:56.240Z,67.11
2022-11-21T21:19:00.736Z,67.05
2022-11-21T21:22:09.289Z,67.18
2022-11-21T21:25:15.433Z,67.22
2022-11-21T21:28:21.506Z,67.45
2022-11-21T21:31:28.210Z,67.70
2022-11-21T21:34:34.250Z,67.94
2022-11-21T21:37:40.689Z,68.00
2022-11-21T21:40:46.847Z,67.91
2022-11-21T21:43:53.936Z,67.61
2022-11-21T21:47:00.011Z,67.56
2022-11-21T21:50:11.423Z,67.43
2022-11-21T21:53:20.585Z,67.26
2022-11-21T21:56:29.067Z,67.27
2022-11-21T21:59:35.204Z,67.24
2022-11-21T22:02:41.217Z,67.19
2022-11-21T22:05:47.263Z,67.39
2022-11-21T22:08:54.659Z,67.35
2022-11-21T22:12:01.806Z,67.35
2022-11-21T22:15:09.702Z,67.39
2022-11-21T22:18:15.722Z,67.36
2022-11-21T22:21:23.758Z,67.55
2022-11-21T22:24:29.865Z,67.57
2022-11-21T22:27:36.086Z,67.49
2022-11-21T22:30:42.449Z,67.63
2022-11-21T22:33:48.990Z,67.99
2022-11-21T22:36:55.253Z,68.11
2022-11-21T22:40:01.492Z,68.16
2022-11-21T22:43:06.605Z,68.24
2022-11-21T22:46:13.780Z,68.36
2022-11-21T22:49:20.303Z,67.96
2022-11-21T22:52:26.780Z,67.77
2022-11-21T22:55:32.909Z,67.84
2022-11-21T22:58:40.789Z,67.91
2022-11-21T23:01:47.025Z,67.97
2022-11-21T23:04:53.092Z,67.66
2022-11-21T23:07:59.164Z,67.76
2022-11-21T23:11:10.202Z,67.75
2022-11-21T23:14:16.617Z,67.44
2022-11-21T23:17:21.322Z,67.60
2022-11-21T23:20:27.498Z,67.69
2022-11-21T23:23:33.971Z,66.74
2022-11-21T23:26:40.538Z,67.03
2022-11-21T23:29:46.637Z,66.78
2022-11-21T23:32:52.851Z,66.62
2022-11-21T23:35:57.482Z,66.69
2022-11-21T23:39:03.712Z,67.16
2022-11-21T23:42:09.907Z,67.61
2022-11-21T23:45:16.298Z,67.65
2022-11-21T23:48:21.267Z,67.60
2022-11-21T23:51:27.634Z,67.38
2022-11-21T23:54:32.145Z,66.70
2022-11-21T23:57:38.276Z,66.58
